createdAt,value
2022-11-30T00:00:08.959Z,0.00
2022-11-30T00:01:08.944Z,0.00
2022-11-30T00:02:09.048Z,0.00
2022-11-30T00:03:09.108Z,0.00
2022-11-30T00:04:08.929Z,0.00
2022-11-30T00:05:08.870Z,0.00
2022-11-30T00:06:08.883Z,0.00
2022-11-30T00:07:08.850Z,0.00
2022-11-30T00:08:08.841Z,0.00
2022-11-30T00:09:08.830Z,0.00
2022-11-30T00:10:08.876Z,0.00
2022-11-30T00:11:08.807Z,0.00
2022-11-30T00:12:08.824Z,0.00
2022-11-30T00:13:08.805Z,0.00
2022-11-30T00:14:08.781Z,0.00
2022-11-30T00:15:08.806Z,0.00
2022-11-30T00:16:08.786Z,0.00
2022-11-30T00:17:08.823Z,0.00
2022-11-30T00:18:08.758Z,0.00
2022-11-30T00:19:08.740Z,0.00
2022-11-30T00:20:08.708Z,0.00
2022-11-30T00:21:08.886Z,0.00
2022-11-30T00:22:08.720Z,0.00
2022-11-30T00:23:08.686Z,0.00
2022-11-30T00:24:08.671Z,0.00
2022-11-30T00:25:08.666Z,0.00
2022-11-30T00:26:08.658Z,0.00
2022-11-30T00:27:08.654Z,0.00
2022-11-30T00:28:08.630Z,0.00
2022-11-30T00:29:08.616Z,0.00
2022-11-30T00:30:08.606Z,0.00
2022-11-30T00:31:08.675Z,0.00
2022-11-30T00:32:08.617Z,0.00
2022-11-30T00:33:08.585Z,0.00
2022-11-30T00:34:08.622Z,0.00
2022-11-30T00:35:08.554Z,0.00
2022-11-30T00:36:08.536Z,0.00
2022-11-30T00:37:08.540Z,0.00
2022-11-30T00:38:08.558Z,0.00
2022-11-30T00:39:08.535Z,0.00
2022-11-30T00:40:08.495Z,0.00
2022-11-30T00:41:08.508Z,0.00
2022-11-30T00:42:08.472Z,0.00
2022-11-30T00:43:08.490Z,0.00
2022-11-30T00:44:08.478Z,0.00
2022-11-30T00:45:08.465Z,0.00
2022-11-30T00:46:08.475Z,0.00
2022-11-30T00:47:08.447Z,0.00
2022-11-30T00:48:08.431Z,0.00
2022-11-30T00:49:08.393Z,0.00
2022-11-30T00:50:08.416Z,0.00
2022-11-30T00:51:08.374Z,0.00
2022-11-30T00:52:08.376Z,0.00
2022-11-30T00:53:08.369Z,0.00
2022-11-30T00:54:08.362Z,0.00
2022-11-30T00:55:08.331Z,0.00
2022-11-30T00:56:08.350Z,0.00
2022-11-30T00:57:08.325Z,0.00
2022-11-30T00:58:08.307Z,0.00
2022-11-30T00:59:08.300Z,0.00
2022-11-30T01:00:08.287Z,0.00
2022-11-30T01:01:08.357Z,0.00
2022-11-30T01:02:08.374Z,0.00
2022-11-30T01:03:08.265Z,0.00
2022-11-30T01:04:08.230Z,0.00
2022-11-30T01:05:08.253Z,0.00
2022-11-30T01:06:08.249Z,0.00
2022-11-30T01:07:08.196Z,0.00
2022-11-30T01:08:08.228Z,0.00
2022-11-30T01:09:08.178Z,0.00
2022-11-30T01:10:08.182Z,0.00
2022-11-30T01:11:08.195Z,0.00
2022-11-30T01:12:08.153Z,0.00
2022-11-30T01:13:08.152Z,0.00
2022-11-30T01:14:08.149Z,0.00
2022-11-30T01:15:08.137Z,0.00
2022-11-30T01:16:08.145Z,0.00
2022-11-30T01:17:08.108Z,0.00
2022-11-30T01:18:08.121Z,0.00
2022-11-30T01:19:08.091Z,0.00
2022-11-30T01:20:08.073Z,0.00
2022-11-30T01:21:08.064Z,0.00
2022-11-30T01:22:08.076Z,0.00
2022-11-30T01:23:08.052Z,0.00
2022-11-30T01:24:08.041Z,0.00
2022-11-30T01:25:08.017Z,0.00
2022-11-30T01:26:07.998Z,0.00
2022-11-30T01:27:07.995Z,0.00
2022-11-30T01:28:07.972Z,0.00
2022-11-30T01:29:07.990Z,0.00
2022-11-30T01:30:07.975Z,0.00
2022-11-30T01:31:08.069Z,0.00
2022-11-30T01:32:07.940Z,0.00
2022-11-30T01:33:07.947Z,0.00
2022-11-30T01:34:07.923Z,0.00
2022-11-30T01:35:07.909Z,0.00
2022-11-30T01:36:07.886Z,0.00
2022-11-30T01:37:07.874Z,0.00
2022-11-30T01:38:07.903Z,0.00
2022-11-30T01:39:07.870Z,0.00
2022-11-30T01:40:07.920Z,0.00
2022-11-30T01:41:07.828Z,0.00
2022-11-30T01:42:07.821Z,0.00
2022-11-30T01:43:07.827Z,0.00
2022-11-30T01:44:07.828Z,0.00
2022-11-30T01:45:07.823Z,0.00
2022-11-30T01:46:07.807Z,0.00
2022-11-30T01:47:07.781Z,0.00
2022-11-30T01:48:07.769Z,0.00
2022-11-30T01:49:07.757Z,0.00
2022-11-30T01:50:07.742Z,0.00
2022-11-30T01:51:07.741Z,0.00
2022-11-30T01:52:07.747Z,0.00
2022-11-30T01:53:07.718Z,0.00
2022-11-30T01:54:07.715Z,0.00
2022-11-30T01:55:07.678Z,0.00
2022-11-30T01:56:07.673Z,0.00
2022-11-30T01:57:07.707Z,0.00
2022-11-30T01:58:07.671Z,0.00
2022-11-30T01:59:07.697Z,0.00
2022-11-30T02:00:07.632Z,0.00
2022-11-30T02:01:07.688Z,0.00
2022-11-30T02:02:07.662Z,0.00
2022-11-30T02:03:07.619Z,0.00
2022-11-30T02:04:07.608Z,0.00
2022-11-30T02:05:07.570Z,0.00
2022-11-30T02:06:07.569Z,0.00
2022-11-30T02:07:07.684Z,0.00
2022-11-30T02:08:07.712Z,0.00
2022-11-30T02:09:07.547Z,0.00
2022-11-30T02:10:07.555Z,0.00
2022-11-30T02:11:07.511Z,0.00
2022-11-30T02:12:07.492Z,0.00
2022-11-30T02:13:07.506Z,0.00
2022-11-30T02:14:07.499Z,0.00
2022-11-30T02:15:07.479Z,0.00
2022-11-30T02:16:07.512Z,0.00
2022-11-30T02:17:07.435Z,0.00
2022-11-30T02:18:07.430Z,0.00
2022-11-30T02:19:07.461Z,0.00
2022-11-30T02:20:07.419Z,0.00
2022-11-30T02:21:07.394Z,0.00
2022-11-30T02:22:07.402Z,0.00
2022-11-30T02:23:07.435Z,0.00
2022-11-30T02:24:07.371Z,0.00
2022-11-30T02:25:07.347Z,0.00
2022-11-30T02:26:07.370Z,0.00
2022-11-30T02:27:07.370Z,0.00
2022-11-30T02:28:07.333Z,0.00
2022-11-30T02:29:07.342Z,0.00
2022-11-30T02:30:07.309Z,0.00
2022-11-30T02:31:07.349Z,0.00
2022-11-30T02:32:07.298Z,0.00
2022-11-30T02:33:07.306Z,0.00
2022-11-30T02:34:07.256Z,0.00
2022-11-30T02:35:07.240Z,0.00
2022-11-30T02:36:07.237Z,0.00
2022-11-30T02:37:07.223Z,0.00
2022-11-30T02:38:07.224Z,0.00
2022-11-30T02:39:07.236Z,0.00
2022-11-30T02:40:07.204Z,0.00
2022-11-30T02:41:07.188Z,0.00
2022-11-30T02:42:07.210Z,0.00
2022-11-30T02:43:07.167Z,0.00
2022-11-30T02:44:07.143Z,0.00
2022-11-30T02:45:07.125Z,0.00
2022-11-30T02:46:07.197Z,0.00
2022-11-30T02:47:07.131Z,0.00
2022-11-30T02:48:07.106Z,0.00
2022-11-30T02:49:07.124Z,0.00
2022-11-30T02:50:07.086Z,0.00
2022-11-30T02:51:07.088Z,0.00
2022-11-30T02:52:07.105Z,0.00
2022-11-30T02:53:07.067Z,0.00
2022-11-30T02:54:07.035Z,0.00
2022-11-30T02:55:07.030Z,0.00
2022-11-30T02:56:07.008Z,0.00
2022-11-30T02:57:07.024Z,0.00
2022-11-30T02:58:07.029Z,0.00
2022-11-30T02:59:06.994Z,0.00
2022-11-30T03:00:06.987Z,0.00
2022-11-30T03:01:07.061Z,0.00
2022-11-30T03:02:06.946Z,0.00
2022-11-30T03:03:07.057Z,0.00
2022-11-30T03:04:06.935Z,0.00
2022-11-30T03:05:06.999Z,0.00
2022-11-30T03:06:06.899Z,0.00
2022-11-30T03:07:06.919Z,0.00
2022-11-30T03:08:06.882Z,0.00
2022-11-30T03:09:06.895Z,0.00
2022-11-30T03:10:06.868Z,0.00
2022-11-30T03:11:06.849Z,0.00
2022-11-30T03:12:06.831Z,0.00
2022-11-30T03:13:06.872Z,0.00
2022-11-30T03:14:06.851Z,0.00
2022-11-30T03:15:06.805Z,0.00
2022-11-30T03:16:06.957Z,0.00
2022-11-30T03:17:06.780Z,0.00
2022-11-30T03:18:06.780Z,0.00
2022-11-30T03:19:06.771Z,0.00
2022-11-30T03:20:06.761Z,0.00
2022-11-30T03:21:06.739Z,0.00
2022-11-30T03:22:06.747Z,0.00
2022-11-30T03:23:06.729Z,0.00
2022-11-30T03:24:06.731Z,0.00
2022-11-30T03:25:06.705Z,0.00
2022-11-30T03:26:06.694Z,0.00
2022-11-30T03:27:06.669Z,0.00
2022-11-30T03:28:06.669Z,0.00
2022-11-30T03:29:06.661Z,0.00
2022-11-30T03:30:06.659Z,0.00
2022-11-30T03:31:06.671Z,0.00
2022-11-30T03:32:06.622Z,0.00
2022-11-30T03:33:06.682Z,0.00
2022-11-30T03:34:06.592Z,0.00
2022-11-30T03:35:06.580Z,0.00
2022-11-30T03:36:06.592Z,0.00
2022-11-30T03:37:06.577Z,0.00
2022-11-30T03:38:06.557Z,0.00
2022-11-30T03:39:06.568Z,0.00
2022-11-30T03:40:06.534Z,0.00
2022-11-30T03:41:06.537Z,0.00
2022-11-30T03:42:06.510Z,0.00
2022-11-30T03:43:06.509Z,0.00
2022-11-30T03:44:06.500Z,0.00
2022-11-30T03:45:06.488Z,0.00
2022-11-30T03:46:06.573Z,0.00
2022-11-30T03:47:06.469Z,0.00
2022-11-30T03:48:06.491Z,0.00
2022-11-30T03:49:06.454Z,0.00
2022-11-30T03:50:06.462Z,0.00
2022-11-30T03:51:06.416Z,0.00
2022-11-30T03:52:06.414Z,0.00
2022-11-30T03:53:06.433Z,0.00
2022-11-30T03:54:06.390Z,0.00
2022-11-30T03:55:06.374Z,0.00
2022-11-30T03:56:06.395Z,0.00
2022-11-30T03:57:06.381Z,0.00
2022-11-30T03:58:06.361Z,0.00
2022-11-30T03:59:06.343Z,0.00
2022-11-30T04:00:06.335Z,0.00
2022-11-30T04:01:06.320Z,0.00
2022-11-30T04:02:06.348Z,0.00
2022-11-30T04:03:06.385Z,0.00
2022-11-30T04:04:06.276Z,0.00
2022-11-30T04:05:06.266Z,0.00
2022-11-30T04:06:06.256Z,0.00
2022-11-30T04:07:06.236Z,0.00
2022-11-30T04:08:06.238Z,0.00
2022-11-30T04:09:06.236Z,0.00
2022-11-30T04:10:08.599Z,0.00
2022-11-30T04:11:06.193Z,0.00
2022-11-30T04:12:06.180Z,0.00
2022-11-30T04:13:06.170Z,0.00
2022-11-30T04:14:06.177Z,0.00
2022-11-30T04:15:06.148Z,0.00
2022-11-30T04:16:06.189Z,0.00
2022-11-30T04:17:06.138Z,0.00
2022-11-30T04:18:06.155Z,0.00
2022-11-30T04:19:06.127Z,0.00
2022-11-30T04:20:06.108Z,0.00
2022-11-30T04:21:06.101Z,0.00
2022-11-30T04:22:06.103Z,0.00
2022-11-30T04:23:06.093Z,0.00
2022-11-30T04:24:06.057Z,0.00
2022-11-30T04:25:06.048Z,0.00
2022-11-30T04:26:06.042Z,0.00
2022-11-30T04:27:06.040Z,0.00
2022-11-30T04:28:06.019Z,0.00
2022-11-30T04:29:06.010Z,0.00
2022-11-30T04:30:05.988Z,0.00
2022-11-30T04:31:06.066Z,0.00
2022-11-30T04:32:05.983Z,0.00
2022-11-30T04:33:05.990Z,0.00
2022-11-30T04:34:05.966Z,0.00
2022-11-30T04:35:05.959Z,0.00
2022-11-30T04:36:05.921Z,0.00
2022-11-30T04:37:05.906Z,0.00
2022-11-30T04:38:05.909Z,0.00
2022-11-30T04:39:05.883Z,0.00
2022-11-30T04:40:05.898Z,0.00
2022-11-30T04:41:05.891Z,0.00
2022-11-30T04:42:05.877Z,0.00
2022-11-30T04:43:05.845Z,0.00
2022-11-30T04:44:05.848Z,0.00
2022-11-30T04:45:05.832Z,0.00
2022-11-30T04:46:05.813Z,0.00
2022-11-30T04:47:05.803Z,0.00
2022-11-30T04:48:05.803Z,0.00
2022-11-30T04:49:05.808Z,0.00
2022-11-30T04:50:05.793Z,0.00
2022-11-30T04:51:05.766Z,0.00
2022-11-30T04:52:05.766Z,0.00
2022-11-30T04:53:05.741Z,0.00
2022-11-30T04:54:05.720Z,0.00
2022-11-30T04:55:05.708Z,0.00
2022-11-30T04:56:05.730Z,0.00
2022-11-30T04:57:05.691Z,0.00
2022-11-30T04:58:05.687Z,0.00
2022-11-30T04:59:05.666Z,0.00
2022-11-30T05:00:05.665Z,0.00
2022-11-30T05:01:05.659Z,0.00
2022-11-30T05:02:05.690Z,0.00
2022-11-30T05:03:05.624Z,0.00
2022-11-30T05:04:05.680Z,0.00
2022-11-30T05:05:05.617Z,0.00
2022-11-30T05:06:05.624Z,0.00
2022-11-30T05:07:05.575Z,0.00
2022-11-30T05:08:05.662Z,0.00
2022-11-30T05:09:05.550Z,0.00
2022-11-30T05:10:05.540Z,0.00
2022-11-30T05:11:05.567Z,0.00
2022-11-30T05:12:05.545Z,0.00
2022-11-30T05:13:05.516Z,0.00
2022-11-30T05:14:05.519Z,0.00
2022-11-30T05:15:05.513Z,0.00
2022-11-30T05:16:05.575Z,0.00
2022-11-30T05:17:05.470Z,0.00
2022-11-30T05:18:05.490Z,0.00
2022-11-30T05:19:05.445Z,0.00
2022-11-30T05:20:05.438Z,0.00
2022-11-30T05:21:05.454Z,0.00
2022-11-30T05:22:05.460Z,0.00
2022-11-30T05:23:05.416Z,0.00
2022-11-30T05:24:05.438Z,0.00
2022-11-30T05:25:05.382Z,0.00
2022-11-30T05:26:05.389Z,0.00
2022-11-30T05:27:10.985Z,0.00
2022-11-30T05:28:06.354Z,0.00
2022-11-30T05:29:05.352Z,0.00
2022-11-30T05:30:05.368Z,0.00
2022-11-30T05:31:05.443Z,0.00
2022-11-30T05:32:05.301Z,0.00
2022-11-30T05:33:05.328Z,0.00
2022-11-30T05:34:05.302Z,0.00
2022-11-30T05:35:05.289Z,0.00
2022-11-30T05:36:10.434Z,0.00
2022-11-30T05:37:06.280Z,0.00
2022-11-30T05:38:05.309Z,0.00
2022-11-30T05:39:05.249Z,0.00
2022-11-30T05:40:05.240Z,0.00
2022-11-30T05:41:05.229Z,0.00
2022-11-30T05:42:05.214Z,0.00
2022-11-30T05:43:05.184Z,0.00
2022-11-30T05:44:05.185Z,0.00
2022-11-30T05:45:05.180Z,0.00
2022-11-30T05:46:05.169Z,0.00
2022-11-30T05:47:05.264Z,0.00
2022-11-30T05:48:05.138Z,0.00
2022-11-30T05:49:05.132Z,0.00
2022-11-30T05:50:05.153Z,0.00
2022-11-30T05:51:05.132Z,0.00
2022-11-30T05:52:05.103Z,0.00
2022-11-30T05:53:05.084Z,0.00
2022-11-30T05:54:05.105Z,0.00
2022-11-30T05:55:05.076Z,0.00
2022-11-30T05:56:05.080Z,0.00
2022-11-30T05:57:05.085Z,0.00
2022-11-30T05:58:05.044Z,0.00
2022-11-30T05:59:05.019Z,0.00
2022-11-30T06:00:05.018Z,0.00
2022-11-30T06:01:05.025Z,0.00
2022-11-30T06:02:05.076Z,0.00
2022-11-30T06:03:05.217Z,0.00
2022-11-30T06:04:08.804Z,0.00
2022-11-30T06:05:04.942Z,0.00
2022-11-30T06:06:04.958Z,0.00
2022-11-30T06:07:04.937Z,0.00
2022-11-30T06:08:04.923Z,0.00
2022-11-30T06:09:04.937Z,0.00
2022-11-30T06:10:04.932Z,0.00
2022-11-30T06:11:04.921Z,0.00
2022-11-30T06:12:04.895Z,0.00
2022-11-30T06:13:04.880Z,0.00
2022-11-30T06:14:04.892Z,0.00
2022-11-30T06:15:04.994Z,0.00
2022-11-30T06:16:04.925Z,0.00
2022-11-30T06:17:04.831Z,0.00
2022-11-30T06:18:04.810Z,0.00
2022-11-30T06:19:04.791Z,0.00
2022-11-30T06:20:04.817Z,0.00
2022-11-30T06:21:04.795Z,0.00
2022-11-30T06:22:04.762Z,0.00
2022-11-30T06:23:04.752Z,0.00
2022-11-30T06:24:04.741Z,0.00
2022-11-30T06:25:04.807Z,0.00
2022-11-30T06:26:04.776Z,0.00
2022-11-30T06:27:04.719Z,0.00
2022-11-30T06:28:04.712Z,0.00
2022-11-30T06:29:04.679Z,0.00
2022-11-30T06:30:04.704Z,0.00
2022-11-30T06:31:04.681Z,0.00
2022-11-30T06:32:04.718Z,0.00
2022-11-30T06:33:04.638Z,0.00
2022-11-30T06:34:04.658Z,0.00
2022-11-30T06:35:04.636Z,0.00
2022-11-30T06:36:04.630Z,0.00
2022-11-30T06:37:04.628Z,0.00
2022-11-30T06:38:04.585Z,0.00
2022-11-30T06:39:04.600Z,0.00
2022-11-30T06:40:07.363Z,0.00
2022-11-30T06:41:04.555Z,0.00
2022-11-30T06:42:04.580Z,0.00
2022-11-30T06:43:04.538Z,0.00
2022-11-30T06:44:04.531Z,0.00
2022-11-30T06:45:04.542Z,0.00
2022-11-30T06:46:04.598Z,0.00
2022-11-30T06:47:04.492Z,0.00
2022-11-30T06:48:04.511Z,0.00
2022-11-30T06:49:04.502Z,0.00
2022-11-30T06:50:04.614Z,0.00
2022-11-30T06:51:04.442Z,0.00
2022-11-30T06:52:04.427Z,0.00
2022-11-30T06:53:04.443Z,0.00
2022-11-30T06:54:04.444Z,0.00
2022-11-30T06:55:04.417Z,0.00
2022-11-30T06:56:09.668Z,0.00
2022-11-30T06:57:05.393Z,0.00
2022-11-30T06:58:05.012Z,0.00
2022-11-30T06:59:04.391Z,0.00
2022-11-30T07:00:04.352Z,0.00
2022-11-30T07:01:04.394Z,0.00
2022-11-30T07:02:09.723Z,0.00
2022-11-30T07:03:05.344Z,0.00
2022-11-30T07:04:04.464Z,0.00
2022-11-30T07:05:04.304Z,0.00
2022-11-30T07:06:04.302Z,0.00
2022-11-30T07:07:04.304Z,0.00
2022-11-30T07:08:04.505Z,0.00
2022-11-30T07:09:04.274Z,0.00
2022-11-30T07:10:04.245Z,0.00
2022-11-30T07:11:04.310Z,0.00
2022-11-30T07:12:04.243Z,0.00
2022-11-30T07:13:04.223Z,0.00
2022-11-30T07:14:04.285Z,0.00
2022-11-30T07:15:04.183Z,0.00
2022-11-30T07:16:04.243Z,0.00
2022-11-30T07:17:04.179Z,0.00
2022-11-30T07:18:04.161Z,0.00
2022-11-30T07:19:04.149Z,0.00
2022-11-30T07:20:04.177Z,0.00
2022-11-30T07:21:04.141Z,0.00
2022-11-30T07:22:04.128Z,0.00
2022-11-30T07:23:04.177Z,0.00
2022-11-30T07:24:04.088Z,0.00
2022-11-30T07:25:04.122Z,0.00
2022-11-30T07:26:04.092Z,0.00
2022-11-30T07:27:04.092Z,0.00
2022-11-30T07:28:04.073Z,0.00
2022-11-30T07:29:04.032Z,0.00
2022-11-30T07:30:04.064Z,0.00
2022-11-30T07:31:05.103Z,0.00
2022-11-30T07:32:04.059Z,0.00
2022-11-30T07:33:04.000Z,0.00
2022-11-30T07:34:03.998Z,0.00
2022-11-30T07:35:03.996Z,0.00
2022-11-30T07:36:03.964Z,0.00
2022-11-30T07:37:03.943Z,0.00
2022-11-30T07:38:09.481Z,0.00
2022-11-30T07:39:04.927Z,0.00
2022-11-30T07:40:04.905Z,0.00
2022-11-30T07:41:03.900Z,0.00
2022-11-30T07:42:03.883Z,0.00
2022-11-30T07:43:03.894Z,0.00
2022-11-30T07:44:03.963Z,0.00
2022-11-30T07:45:03.868Z,0.00
2022-11-30T07:46:03.940Z,0.00
2022-11-30T07:47:03.867Z,0.00
2022-11-30T07:48:03.833Z,0.00
2022-11-30T07:49:03.855Z,0.00
2022-11-30T07:50:03.862Z,5.62
2022-11-30T07:51:03.809Z,5.62
2022-11-30T07:52:03.799Z,5.62
2022-11-30T07:53:03.790Z,5.62
2022-11-30T07:54:03.779Z,5.62
2022-11-30T07:55:03.789Z,5.62
2022-11-30T07:56:03.770Z,5.62
2022-11-30T07:57:03.787Z,5.62
2022-11-30T07:58:03.756Z,5.62
2022-11-30T07:59:03.722Z,11.25
2022-11-30T08:00:03.705Z,11.25
2022-11-30T08:01:03.969Z,11.25
2022-11-30T08:02:03.877Z,11.25
2022-11-30T08:03:03.701Z,11.25
2022-11-30T08:04:03.668Z,11.25
2022-11-30T08:05:03.703Z,11.25
2022-11-30T08:06:03.649Z,11.25
2022-11-30T08:07:03.621Z,11.25
2022-11-30T08:08:03.689Z,11.25
2022-11-30T08:09:03.616Z,11.25
2022-11-30T08:10:03.584Z,11.25
2022-11-30T08:11:03.959Z,11.25
2022-11-30T08:12:03.601Z,16.88
2022-11-30T08:13:03.573Z,11.25
2022-11-30T08:14:03.554Z,11.25
2022-11-30T08:15:20.762Z,11.25
2022-11-30T08:16:04.516Z,16.88
2022-11-30T08:17:03.641Z,16.88
2022-11-30T08:18:03.558Z,16.88
2022-11-30T08:19:03.926Z,22.50
2022-11-30T08:20:03.504Z,16.88
2022-11-30T08:21:03.468Z,16.88
2022-11-30T08:22:03.503Z,16.88
2022-11-30T08:23:03.514Z,16.88
2022-11-30T08:24:03.514Z,16.88
2022-11-30T08:25:03.424Z,11.25
2022-11-30T08:26:03.419Z,11.25
2022-11-30T08:27:03.413Z,11.25
2022-11-30T08:28:03.416Z,11.25
2022-11-30T08:29:03.386Z,11.25
2022-11-30T08:30:03.366Z,11.25
2022-11-30T08:31:03.448Z,11.25
2022-11-30T08:32:03.358Z,11.25
2022-11-30T08:33:03.338Z,11.25
2022-11-30T08:34:03.526Z,11.25
2022-11-30T08:35:03.339Z,11.25
2022-11-30T08:36:03.307Z,11.25
2022-11-30T08:37:03.310Z,11.25
2022-11-30T08:38:03.335Z,11.25
2022-11-30T08:39:03.261Z,16.88
2022-11-30T08:40:03.400Z,16.88
2022-11-30T08:41:03.264Z,16.88
2022-11-30T08:42:03.258Z,16.88
2022-11-30T08:43:03.236Z,16.88
2022-11-30T08:44:03.242Z,16.88
2022-11-30T08:45:03.560Z,16.88
2022-11-30T08:46:08.401Z,16.88
2022-11-30T08:47:04.255Z,16.88
2022-11-30T08:48:03.493Z,16.88
2022-11-30T08:49:20.268Z,16.88
2022-11-30T08:50:04.160Z,22.50
2022-11-30T08:51:03.157Z,22.50
2022-11-30T08:52:19.012Z,22.50
2022-11-30T08:53:06.525Z,22.50
2022-11-30T08:54:03.099Z,22.50
2022-11-30T08:55:03.149Z,28.12
2022-11-30T08:56:03.101Z,28.12
2022-11-30T08:57:03.161Z,33.75
2022-11-30T08:58:03.076Z,33.75
2022-11-30T08:59:03.100Z,39.38
2022-11-30T09:00:03.065Z,39.38
2022-11-30T09:01:03.030Z,39.38
2022-11-30T09:02:03.008Z,45.00
2022-11-30T09:03:03.056Z,50.62
2022-11-30T09:04:02.993Z,50.62
2022-11-30T09:05:03.001Z,56.25
2022-11-30T09:06:02.993Z,61.88
2022-11-30T09:07:03.930Z,61.88
2022-11-30T09:08:03.037Z,67.50
2022-11-30T09:09:02.947Z,67.50
2022-11-30T09:10:02.946Z,73.12
2022-11-30T09:11:02.932Z,73.12
2022-11-30T09:12:02.927Z,73.12
2022-11-30T09:13:02.940Z,78.75
2022-11-30T09:14:02.921Z,90.00
2022-11-30T09:15:03.013Z,95.62
2022-11-30T09:16:02.961Z,101.25
2022-11-30T09:17:02.854Z,106.88
2022-11-30T09:18:03.425Z,112.50
2022-11-30T09:19:02.850Z,106.88
2022-11-30T09:20:02.819Z,101.25
2022-11-30T09:21:02.815Z,90.00
2022-11-30T09:22:02.842Z,78.75
2022-11-30T09:23:02.819Z,84.38
2022-11-30T09:24:02.790Z,90.00
2022-11-30T09:25:02.834Z,78.75
2022-11-30T09:26:02.761Z,73.12
2022-11-30T09:27:02.772Z,67.50
2022-11-30T09:28:02.759Z,61.88
2022-11-30T09:29:02.776Z,61.88
2022-11-30T09:30:02.711Z,67.50
2022-11-30T09:31:02.821Z,67.50
2022-11-30T09:32:02.681Z,67.50
2022-11-30T09:33:02.708Z,61.88
2022-11-30T09:34:02.674Z,50.62
2022-11-30T09:35:02.675Z,50.62
2022-11-30T09:36:02.660Z,50.62
2022-11-30T09:37:03.253Z,50.62
2022-11-30T09:38:02.678Z,45.00
2022-11-30T09:39:02.765Z,45.00
2022-11-30T09:40:03.403Z,39.38
2022-11-30T09:41:02.704Z,39.38
2022-11-30T09:42:02.618Z,33.75
2022-11-30T09:43:02.939Z,22.50
2022-11-30T09:44:02.568Z,22.50
2022-11-30T09:45:02.557Z,22.50
2022-11-30T09:46:02.568Z,22.50
2022-11-30T09:47:02.560Z,22.50
2022-11-30T09:48:02.534Z,16.88
2022-11-30T09:49:03.432Z,16.88
2022-11-30T09:50:02.491Z,16.88
2022-11-30T09:51:02.548Z,16.88
2022-11-30T09:52:02.485Z,22.50
2022-11-30T09:53:02.459Z,22.50
2022-11-30T09:54:02.532Z,22.50
2022-11-30T09:55:02.431Z,22.50
2022-11-30T09:56:02.466Z,28.12
2022-11-30T09:57:02.430Z,28.12
2022-11-30T09:58:02.440Z,28.12
2022-11-30T09:59:02.391Z,28.12
2022-11-30T10:00:02.380Z,28.12
2022-11-30T10:01:06.713Z,28.12
2022-11-30T10:02:03.446Z,28.12
2022-11-30T10:03:02.581Z,28.12
2022-11-30T10:04:02.349Z,33.75
2022-11-30T10:05:02.325Z,33.75
2022-11-30T10:06:02.375Z,39.38
2022-11-30T10:07:02.328Z,33.75
2022-11-30T10:08:02.450Z,33.75
2022-11-30T10:09:02.349Z,28.12
2022-11-30T10:10:31.074Z,28.12
2022-11-30T10:11:03.355Z,28.12
2022-11-30T10:12:02.388Z,28.12
2022-11-30T10:13:02.246Z,28.12
2022-11-30T10:14:02.226Z,28.12
2022-11-30T10:15:02.249Z,28.12
2022-11-30T10:16:02.377Z,28.12
2022-11-30T10:17:02.201Z,28.12
2022-11-30T10:18:02.184Z,28.12
2022-11-30T10:19:02.191Z,28.12
2022-11-30T10:20:02.193Z,28.12
2022-11-30T10:21:02.161Z,33.75
2022-11-30T10:22:02.162Z,33.75
2022-11-30T10:23:02.138Z,33.75
2022-11-30T10:24:02.163Z,33.75
2022-11-30T10:25:05.918Z,39.38
2022-11-30T10:26:03.161Z,39.38
2022-11-30T10:27:02.100Z,39.38
2022-11-30T10:28:18.175Z,39.38
2022-11-30T10:29:03.071Z,39.38
2022-11-30T10:30:02.077Z,39.38
2022-11-30T10:31:02.143Z,39.38
2022-11-30T10:32:02.064Z,39.38
2022-11-30T10:33:02.077Z,39.38
2022-11-30T10:34:02.057Z,39.38
2022-11-30T10:35:02.016Z,39.38
2022-11-30T10:36:01.992Z,39.38
2022-11-30T10:37:01.985Z,39.38
2022-11-30T10:38:02.023Z,39.38
2022-11-30T10:39:01.976Z,39.38
2022-11-30T10:40:01.961Z,45.00
2022-11-30T10:41:01.951Z,45.00
2022-11-30T10:42:01.956Z,45.00
2022-11-30T10:43:01.957Z,45.00
2022-11-30T10:44:02.012Z,45.00
2022-11-30T10:45:01.904Z,45.00
2022-11-30T10:46:01.950Z,45.00
2022-11-30T10:47:02.001Z,45.00
2022-11-30T10:48:01.895Z,45.00
2022-11-30T10:49:01.870Z,45.00
2022-11-30T10:50:01.929Z,45.00
2022-11-30T10:51:01.818Z,45.00
2022-11-30T10:52:01.820Z,45.00
2022-11-30T10:53:01.834Z,45.00
2022-11-30T10:54:01.913Z,45.00
2022-11-30T10:55:04.895Z,50.62
2022-11-30T10:56:01.770Z,45.00
2022-11-30T10:57:01.814Z,45.00
2022-11-30T10:58:01.807Z,50.62
2022-11-30T10:59:01.774Z,50.62
2022-11-30T11:00:01.867Z,45.00
2022-11-30T11:01:01.744Z,45.00
2022-11-30T11:02:01.791Z,39.38
2022-11-30T11:03:01.764Z,39.38
2022-11-30T11:04:01.800Z,33.75
2022-11-30T11:05:01.669Z,28.12
2022-11-30T11:06:01.664Z,28.12
2022-11-30T11:07:01.724Z,33.75
2022-11-30T11:08:06.782Z,39.38
2022-11-30T11:09:02.639Z,33.75
2022-11-30T11:10:01.636Z,33.75
2022-11-30T11:11:01.663Z,33.75
2022-11-30T11:12:01.618Z,28.12
2022-11-30T11:13:01.588Z,33.75
2022-11-30T11:14:01.624Z,33.75
2022-11-30T11:15:01.569Z,28.12
2022-11-30T11:16:01.710Z,33.75
2022-11-30T11:17:01.568Z,39.38
2022-11-30T11:18:01.564Z,39.38
2022-11-30T11:19:01.604Z,39.38
2022-11-30T11:20:01.543Z,39.38
2022-11-30T11:21:05.962Z,39.38
2022-11-30T11:22:02.501Z,39.38
2022-11-30T11:23:01.521Z,45.00
2022-11-30T11:24:01.471Z,45.00
2022-11-30T11:25:01.464Z,45.00
2022-11-30T11:26:01.474Z,45.00
2022-11-30T11:27:01.476Z,45.00
2022-11-30T11:28:01.527Z,45.00
2022-11-30T11:29:01.430Z,45.00
2022-11-30T11:30:01.450Z,39.38
2022-11-30T11:31:01.494Z,39.38
2022-11-30T11:32:01.396Z,39.38
2022-11-30T11:33:01.386Z,39.38
2022-11-30T11:34:01.465Z,45.00
2022-11-30T11:35:01.350Z,45.00
2022-11-30T11:36:01.357Z,39.38
2022-11-30T11:37:01.948Z,45.00
2022-11-30T11:38:01.322Z,45.00
2022-11-30T11:39:01.409Z,45.00
2022-11-30T11:40:01.319Z,39.38
2022-11-30T11:41:01.424Z,39.38
2022-11-30T11:42:01.500Z,39.38
2022-11-30T11:43:01.288Z,33.75
2022-11-30T11:44:01.323Z,39.38
2022-11-30T11:45:01.267Z,39.38
2022-11-30T11:46:01.392Z,39.38
2022-11-30T11:47:01.467Z,39.38
2022-11-30T11:48:01.232Z,39.38
2022-11-30T11:49:01.209Z,39.38
2022-11-30T11:50:01.197Z,39.38
2022-11-30T11:51:08.757Z,39.38
2022-11-30T11:52:02.995Z,39.38
2022-11-30T11:53:01.161Z,39.38
2022-11-30T11:54:01.174Z,39.38
2022-11-30T11:55:01.148Z,39.38
2022-11-30T11:56:01.291Z,39.38
2022-11-30T11:57:01.104Z,45.00
2022-11-30T11:58:01.121Z,50.62
2022-11-30T11:59:01.125Z,50.62
2022-11-30T12:00:01.093Z,56.25
2022-11-30T12:01:17.211Z,56.25
2022-11-30T12:02:02.983Z,56.25
2022-11-30T12:03:01.117Z,56.25
2022-11-30T12:04:01.203Z,56.25
2022-11-30T12:05:01.058Z,56.25
2022-11-30T12:06:01.127Z,50.62
2022-11-30T12:07:01.017Z,50.62
2022-11-30T12:08:00.999Z,45.00
2022-11-30T12:09:01.006Z,39.38
2022-11-30T12:10:00.996Z,33.75
2022-11-30T12:11:00.972Z,28.12
2022-11-30T12:12:00.954Z,28.12
2022-11-30T12:13:00.964Z,28.12
2022-11-30T12:14:00.944Z,22.50
2022-11-30T12:15:00.956Z,22.50
2022-11-30T12:16:00.947Z,22.50
2022-11-30T12:17:00.899Z,22.50
2022-11-30T12:18:01.015Z,22.50
2022-11-30T12:19:00.895Z,28.12
2022-11-30T12:20:00.856Z,28.12
2022-11-30T12:21:00.944Z,28.12
2022-11-30T12:22:00.918Z,28.12
2022-11-30T12:23:00.847Z,28.12
2022-11-30T12:24:00.884Z,22.50
2022-11-30T12:25:05.652Z,22.50
2022-11-30T12:26:02.397Z,22.50
2022-11-30T12:27:00.776Z,28.12
2022-11-30T12:28:00.818Z,33.75
2022-11-30T12:29:00.791Z,33.75
2022-11-30T12:30:00.754Z,39.38
2022-11-30T12:31:00.879Z,39.38
2022-11-30T12:32:00.760Z,39.38
2022-11-30T12:33:00.725Z,33.75
2022-11-30T12:34:00.728Z,28.12
2022-11-30T12:35:00.699Z,28.12
2022-11-30T12:36:00.711Z,28.12
2022-11-30T12:37:00.687Z,28.12
2022-11-30T12:38:00.675Z,28.12
2022-11-30T12:39:00.679Z,28.12
2022-11-30T12:40:00.710Z,28.12
2022-11-30T12:41:00.666Z,28.12
2022-11-30T12:42:00.650Z,28.12
2022-11-30T12:43:00.622Z,28.12
2022-11-30T12:44:00.695Z,33.75
2022-11-30T12:45:00.574Z,33.75
2022-11-30T12:46:00.590Z,39.38
2022-11-30T12:47:00.682Z,39.38
2022-11-30T12:48:00.556Z,39.38
2022-11-30T12:49:00.594Z,39.38
2022-11-30T12:50:00.620Z,39.38
2022-11-30T12:51:00.529Z,39.38
2022-11-30T12:52:00.536Z,39.38
2022-11-30T12:53:00.499Z,33.75
2022-11-30T12:54:00.546Z,33.75
2022-11-30T12:55:00.508Z,28.12
2022-11-30T12:56:00.531Z,28.12
2022-11-30T12:57:00.481Z,22.50
2022-11-30T12:58:00.448Z,22.50
2022-11-30T12:59:00.436Z,28.12
2022-11-30T13:00:00.418Z,28.12
2022-11-30T13:01:00.492Z,22.50
2022-11-30T13:02:00.430Z,22.50
2022-11-30T13:03:00.393Z,28.12
2022-11-30T13:04:00.418Z,33.75
2022-11-30T13:05:01.364Z,39.38
2022-11-30T13:06:00.384Z,39.38
2022-11-30T13:07:00.359Z,39.38